Time;durP1;ratioP1;P1;durP2;ratioP2;P2;SDS_P1;SDS_P2;PMS_P1;PMS_P2;Temp;Humidity;BMP_temperature;BMP_pressure;BME280_temperature;BME280_humidity;BME280_pressure;Samples;Min_cycle;Max_cycle;Signal;HPM_P1;HPM_P2
2023/06/08 03:53:51;;;;;;;23.38;8.80;;;;;;;12.11;100.00;101618.91;5045811;23;20498;-93
2023/06/08 03:56:55;;;;;;;18.48;9.00;;;;;;;12.19;100.00;101649.06;4932536;29;20091;-93
2023/06/08 04:13:05;;;;;;;19.25;9.07;;;;;;;12.20;100.00;101646.16;5084175;23;20054;-93
2023/06/08 04:15:35;;;;;;;16.23;8.80;;;;;;;12.08;100.00;101614.03;4993278;28;20094;-94
2023/06/08 04:18:03;;;;;;;23.20;9.47;;;;;;;12.16;100.00;101631.59;4992704;28;20301;-93
2023/06/08 04:20:40;;;;;;;19.75;9.25;;;;;;;12.07;100.00;101622.31;4989105;28;20031;-91
2023/06/08 04:23:18;;;;;;;22.80;8.98;;;;;;;12.04;100.00;101620.94;4973529;28;20019;-92
2023/06/08 04:25:49;;;;;;;20.55;9.55;;;;;;;12.03;100.00;101618.53;4971223;28;20119;-92
2023/06/08 04:28:15;;;;;;;20.67;9.63;;;;;;;12.10;100.00;101635.25;4972878;28;20030;-92
2023/06/08 04:30:41;;;;;;;25.10;9.43;;;;;;;12.08;100.00;101615.88;4974794;28;20026;-93
2023/06/08 04:33:15;;;;;;;23.30;9.33;;;;;;;12.27;100.00;101633.34;4972727;28;20085;-93
2023/06/08 04:35:43;;;;;;;23.38;10.07;;;;;;;12.31;100.00;101632.84;4972088;28;20042;-95
2023/06/08 04:38:18;;;;;;;22.13;8.98;;;;;;;12.23;100.00;101613.38;4975130;28;20043;-93
2023/06/08 04:40:56;;;;;;;21.77;9.93;;;;;;;12.47;100.00;101637.34;4973531;28;20535;-92
2023/06/08 04:43:31;;;;;;;23.30;10.35;;;;;;;12.38;100.00;101614.66;4971299;28;20027;-91
2023/06/08 04:46:04;;;;;;;19.67;10.25;;;;;;;12.49;100.00;101621.78;4971960;28;20035;-91
2023/06/08 04:48:30;;;;;;;23.98;9.60;;;;;;;12.69;100.00;101625.75;4971703;28;20015;-92
2023/06/08 04:50:59;;;;;;;20.80;10.20;;;;;;;13.16;100.00;101633.19;4958464;28;20046;-93
2023/06/08 04:53:25;;;;;;;25.38;10.10;;;;;;;13.89;100.00;101639.97;4972683;28;20115;-94
2023/06/08 05:01:16;;;;;;;16.98;8.90;;;;;;;15.37;96.29;101609.38;5570471;23;20059;-96
2023/06/08 05:03:42;;;;;;;22.85;8.48;;;;;;;15.84;92.07;101626.34;5016829;28;20014;-96
2023/06/08 05:06:26;;;;;;;23.20;8.85;;;;;;;16.25;91.90;101636.25;5009735;28;20019;-91
2023/06/08 05:09:01;;;;;;;18.93;8.67;;;;;;;16.34;88.52;101621.84;5002171;28;20030;-92
2023/06/08 05:11:26;;;;;;;18.13;9.00;;;;;;;16.24;85.86;101618.41;4988899;28;20757;-92
2023/06/08 05:13:51;;;;;;;21.63;8.30;;;;;;;16.14;86.51;101617.34;4975049;28;20114;-90
2023/06/08 05:16:17;;;;;;;18.83;8.63;;;;;;;16.31;85.86;101635.97;4954945;28;20031;-88
2023/06/08 05:18:42;;;;;;;17.20;8.43;;;;;;;16.42;85.33;101630.50;4972874;28;20027;-93
2023/06/08 05:21:07;;;;;;;16.47;8.03;;;;;;;16.79;84.46;101648.97;4973403;28;20026;-91
2023/06/08 05:23:34;;;;;;;17.33;8.30;;;;;;;16.98;81.41;101639.41;4977645;28;20528;-88
2023/06/08 05:25:59;;;;;;;18.05;8.50;;;;;;;17.08;80.83;101639.31;4976924;28;20022;-90
2023/06/08 05:28:24;;;;;;;17.37;8.33;;;;;;;17.23;79.77;101638.41;4979983;28;20088;-91
2023/06/08 05:30:50;;;;;;;16.80;7.95;;;;;;;17.46;78.06;101641.47;4975678;28;20483;-90
2023/06/08 05:33:15;;;;;;;16.93;7.90;;;;;;;17.55;76.89;101634.31;4964699;28;20031;-91
2023/06/08 05:35:40;;;;;;;21.70;8.30;;;;;;;17.93;76.46;101633.69;4962227;28;20554;-90
2023/06/08 05:38:05;;;;;;;20.67;7.80;;;;;;;18.18;73.29;101638.03;4955149;29;20031;-90
2023/06/08 05:40:31;;;;;;;16.33;8.10;;;;;;;18.07;72.92;101623.78;4955510;28;20110;-92
2023/06/08 05:42:56;;;;;;;14.83;7.57;;;;;;;18.22;73.23;101630.94;4965429;28;20027;-92
2023/06/08 05:45:22;;;;;;;17.30;8.27;;;;;;;18.34;72.46;101632.44;4974005;28;20030;-89
2023/06/08 05:47:47;;;;;;;13.73;8.17;;;;;;;18.50;71.80;101620.25;4973926;28;20282;-90
2023/06/08 05:50:12;;;;;;;14.33;7.80;;;;;;;18.49;72.49;101623.28;4972164;28;20708;-89
2023/06/08 05:52:38;;;;;;;14.60;8.10;;;;;;;18.40;71.03;101620.41;4969185;28;20495;-88
2023/06/08 05:55:04;;;;;;;24.17;8.60;;;;;;;18.43;72.77;101625.25;4987887;28;20112;-88
2023/06/08 05:57:30;;;;;;;17.80;8.77;;;;;;;18.51;71.81;101627.31;4985807;28;20387;-88
2023/06/08 05:59:55;;;;;;;13.00;7.97;;;;;;;18.76;70.70;101639.72;4982942;28;20375;-89
2023/06/08 06:02:21;;;;;;;16.33;8.60;;;;;;;18.70;71.44;101626.50;4993561;28;20073;-89
2023/06/08 06:04:46;;;;;;;16.40;8.80;;;;;;;18.40;71.06;101631.28;4978538;28;20042;-87
2023/06/08 06:07:11;;;;;;;16.00;8.55;;;;;;;17.94;72.40;101616.34;4972246;28;20031;-89
2023/06/08 06:09:37;;;;;;;18.37;8.90;;;;;;;17.71;74.78;101624.94;4970267;28;20038;-90
2023/06/08 06:12:03;;;;;;;18.60;9.10;;;;;;;17.59;75.17;101629.97;4972409;28;20065;-89
2023/06/08 06:14:39;;;;;;;18.67;8.88;;;;;;;17.40;77.03;101619.03;4981620;28;20084;-89
2023/06/08 06:17:05;;;;;;;17.92;9.10;;;;;;;17.45;77.56;101629.03;4990875;28;20129;-94
2023/06/08 06:19:36;;;;;;;14.68;9.40;;;;;;;17.24;77.44;101618.34;4972379;28;20403;-90
2023/06/08 06:22:02;;;;;;;20.20;9.77;;;;;;;17.30;78.96;101628.06;4975881;28;20042;-91
2023/06/08 06:24:27;;;;;;;17.67;9.53;;;;;;;17.30;78.30;101628.06;4974293;28;20121;-90
2023/06/08 06:26:53;;;;;;;19.67;9.80;;;;;;;17.38;78.85;101623.94;4973658;28;20361;-88
2023/06/08 06:32:23;;;;;;;18.55;9.30;;;;;;;17.64;79.45;101632.63;5032649;23;20061;-90
2023/06/08 06:35:16;;;;;;;17.40;9.85;;;;;;;17.78;78.14;101634.66;4996138;28;20026;-93
2023/06/08 06:37:45;;;;;;;20.37;9.57;;;;;;;17.75;78.19;101629.81;4997771;28;20030;-94
2023/06/08 06:40:19;;;;;;;19.23;10.03;;;;;;;17.53;76.37;101620.25;4989160;28;20309;-91
2023/06/08 06:42:45;;;;;;;17.50;8.60;;;;;;;17.33;77.07;101605.84;4990851;28;20042;-90
2023/06/08 06:45:41;;;;;;;20.17;10.53;;;;;;;17.36;77.86;101626.91;4987658;28;20046;-90
2023/06/08 06:48:13;;;;;;;23.50;10.43;;;;;;;17.41;79.58;101607.91;4979624;28;20030;-90
2023/06/08 06:50:38;;;;;;;19.17;10.32;;;;;;;17.42;78.38;101611.44;4981389;28;20022;-89
2023/06/08 06:53:03;;;;;;;20.53;10.53;;;;;;;17.50;77.34;101616.22;4988206;28;20033;-91
2023/06/08 06:55:43;;;;;;;19.15;10.40;;;;;;;17.61;78.61;101627.78;4976973;28;20054;-92
2023/06/08 06:58:08;;;;;;;22.23;10.00;;;;;;;17.70;78.13;101622.53;4968651;28;20027;-94
2023/06/08 07:00:40;;;;;;;20.90;9.20;;;;;;;17.80;76.34;101629.75;4973137;28;20300;-94
2023/06/08 07:03:07;;;;;;;19.65;10.57;;;;;;;17.70;76.92;101620.66;4975317;28;20116;-92
2023/06/08 07:05:33;;;;;;;21.77;11.07;;;;;;;17.90;78.47;101626.13;4967896;28;20139;-91
2023/06/08 07:08:17;;;;;;;18.70;10.27;;;;;;;17.85;76.98;101610.75;4980674;28;20649;-90
2023/06/08 07:10:43;;;;;;;18.83;11.37;;;;;;;18.03;77.28;101617.31;4974743;28;20290;-90
2023/06/08 07:13:14;;;;;;;23.50;11.73;;;;;;;18.14;75.29;101624.25;4976945;28;20023;-93
2023/06/08 07:15:46;;;;;;;21.42;12.05;;;;;;;18.07;75.82;101623.00;4974327;28;20034;-92
2023/06/08 07:18:20;;;;;;;22.15;10.93;;;;;;;18.06;76.87;101637.66;4975764;28;20043;-94
2023/06/08 07:20:49;;;;;;;22.73;11.75;;;;;;;18.12;75.73;101633.78;4960390;28;20046;-94
2023/06/08 07:23:23;;;;;;;26.52;11.23;;;;;;;18.31;76.38;101633.81;4976986;28;20054;-95
2023/06/08 07:25:52;;;;;;;20.52;11.65;;;;;;;18.37;74.37;101626.41;4962169;28;20464;-93
2023/06/08 07:28:18;;;;;;;19.75;11.13;;;;;;;18.48;75.74;101633.31;4967009;28;20391;-92
2023/06/08 07:31:08;;;;;;;22.70;11.90;;;;;;;18.80;76.32;101645.38;4972438;28;20042;-96
2023/06/08 07:33:33;;;;;;;24.43;12.57;;;;;;;18.71;74.13;101631.66;4980193;28;20037;-92
2023/06/08 07:35:59;;;;;;;24.50;13.10;;;;;;;18.72;73.49;101640.59;4968999;28;20314;-93
2023/06/08 07:38:25;;;;;;;19.87;12.27;;;;;;;18.80;74.74;101620.13;4983228;28;20315;-92
2023/06/08 07:40:50;;;;;;;27.23;11.63;;;;;;;18.99;74.70;101615.50;4983560;28;20023;-93
2023/06/08 07:43:31;;;;;;;18.40;10.93;;;;;;;19.21;73.36;101631.19;4977714;28;20086;-92
2023/06/08 07:45:56;;;;;;;24.27;12.23;;;;;;;19.36;72.78;101619.25;4988624;28;20038;-93
2023/06/08 07:48:30;;;;;;;23.60;13.67;;;;;;;19.24;71.13;101629.78;4978220;28;20030;-94
2023/06/08 07:51:09;;;;;;;;;;;;;;;;;;;;;
2023/06/08 07:53:36;;;;;;;24.77;13.05;;;;;;;19.34;72.92;101609.81;4976314;28;20410;-93
2023/06/08 07:56:11;;;;;;;22.50;12.30;;;;;;;19.50;71.18;101618.47;4976113;28;20113;-92
2023/06/08 07:58:55;;;;;;;17.75;12.10;;;;;;;19.86;72.92;101630.59;4959385;28;20398;-92
2023/06/08 08:01:23;;;;;;;28.10;13.38;;;;;;;19.81;70.26;101615.19;4975875;28;20031;-92
2023/06/08 08:03:48;;;;;;;23.20;11.57;;;;;;;20.16;69.72;101622.97;4974928;28;20039;-92
2023/06/08 08:06:22;;;;;;;22.30;11.90;;;;;;;20.16;69.17;101631.94;4975603;28;20130;-95
2023/06/08 08:08:48;;;;;;;24.02;13.27;;;;;;;19.97;69.45;101616.53;4974409;28;20035;-92
2023/06/08 08:11:23;;;;;;;21.93;12.33;;;;;;;19.90;70.71;101612.63;4972320;28;20077;-92
2023/06/08 08:13:49;;;;;;;22.20;12.45;;;;;;;20.10;68.43;101608.66;4973925;28;20062;-93
2023/06/08 08:16:24;;;;;;;18.52;12.60;;;;;;;20.27;68.62;101622.44;4957438;28;20081;-94
2023/06/08 08:18:49;;;;;;;27.27;12.48;;;;;;;20.35;68.63;101633.75;4956752;28;20475;-93
2023/06/08 08:21:15;;;;;;;22.60;13.43;;;;;;;20.32;68.00;101626.97;4975397;28;20031;-93
2023/06/08 08:23:40;;;;;;;25.63;12.07;;;;;;;20.43;66.69;101628.38;4977825;28;20038;-95
2023/06/08 08:26:06;;;;;;;21.70;12.33;;;;;;;20.57;68.09;101630.25;4977210;28;20030;-93
2023/06/08 08:28:31;;;;;;;23.48;13.25;;;;;;;20.72;66.61;101627.19;4974195;28;20030;-92
2023/06/08 08:30:57;;;;;;;21.03;12.17;;;;;;;20.91;66.58;101620.78;4955388;28;20030;-92
2023/06/08 08:33:24;;;;;;;25.38;11.70;;;;;;;21.12;66.64;101632.00;4975798;28;20035;-93
2023/06/08 08:35:50;;;;;;;23.93;12.43;;;;;;;21.22;67.28;101622.75;4974119;28;20113;-91
2023/06/08 08:38:15;;;;;;;16.87;11.80;;;;;;;21.45;65.26;101628.97;4974860;28;20306;-93
2023/06/08 08:40:41;;;;;;;22.37;12.23;;;;;;;21.29;64.90;101620.41;5051680;23;20112;-93
2023/06/08 08:43:22;;;;;;;23.23;13.38;;;;;;;21.06;65.11;101616.09;4992404;28;20027;-92
2023/06/08 08:46:13;;;;;;;22.92;12.13;;;;;;;21.33;65.86;101626.03;4967429;28;20045;-93
2023/06/08 08:48:42;;;;;;;17.70;11.07;;;;;;;21.53;64.34;101621.97;4983098;28;20053;-94
2023/06/08 08:51:28;;;;;;;17.73;10.97;;;;;;;21.70;63.05;101617.75;4974116;28;20293;-92
2023/06/08 08:54:05;;;;;;;24.15;11.73;;;;;;;21.87;64.29;101615.09;4965891;28;20491;-92
2023/06/08 08:56:46;;;;;;;19.05;11.60;;;;;;;22.03;62.12;101614.66;4963896;28;20395;-92
2023/06/08 08:59:46;;;;;;;18.38;11.50;;;;;;;22.12;62.75;101610.00;4955474;28;20029;-91
2023/06/08 09:02:11;;;;;;;15.07;10.77;;;;;;;22.19;60.58;101612.25;4970723;28;20031;-95
2023/06/08 09:04:37;;;;;;;15.17;10.03;;;;;;;22.24;60.64;101587.56;4970139;28;20039;-86
2023/06/08 09:07:11;;;;;;;13.33;9.60;;;;;;;22.35;60.75;101588.03;4970904;28;20053;-85
2023/06/08 09:13:20;;;;;;;15.73;9.70;;;;;;;22.56;59.45;101595.63;4955395;28;20403;-92
2023/06/08 09:15:46;;;;;;;16.42;10.07;;;;;;;22.81;58.82;101621.34;4924857;29;20039;-93
2023/06/08 09:18:17;;;;;;;21.20;10.35;;;;;;;22.72;59.73;101615.88;4949681;28;20032;-91
2023/06/08 09:20:43;;;;;;;21.55;10.63;;;;;;;22.80;58.67;101615.09;4961772;28;20071;-96
2023/06/08 09:23:24;;;;;;;16.27;9.90;;;;;;;22.76;58.81;101603.19;4956881;29;20028;-94
2023/06/08 09:25:53;;;;;;;16.60;10.70;;;;;;;22.86;58.56;101607.53;4956027;29;20338;-96
2023/06/08 09:28:24;;;;;;;22.63;10.80;;;;;;;22.95;58.24;101602.84;4956421;29;20028;-92
2023/06/08 09:30:50;;;;;;;18.88;10.50;;;;;;;23.17;56.64;101605.72;4961017;28;20030;-92
2023/06/08 09:33:25;;;;;;;19.00;10.40;;;;;;;23.26;56.86;101593.66;4976778;28;20052;-91
2023/06/08 09:36:04;;;;;;;15.43;10.23;;;;;;;23.35;57.44;101601.84;4970545;28;20302;-95
2023/06/08 09:38:32;;;;;;;17.25;10.48;;;;;;;23.35;56.11;101598.28;4948472;28;20403;-96
2023/06/08 09:41:22;;;;;;;16.45;10.50;;;;;;;23.63;56.22;101600.59;4986922;28;20034;-96
2023/06/08 09:43:49;;;;;;;17.90;10.13;;;;;;;23.68;54.76;101606.69;4970875;28;20109;-96
2023/06/08 09:46:50;;;;;;;15.93;9.07;;;;;;;23.95;56.26;101598.34;4975050;28;20035;-95
2023/06/08 09:49:16;;;;;;;17.05;7.25;;;;;;;24.19;55.77;101595.00;4900482;29;20041;-96
2023/06/08 09:51:50;;;;;;;16.52;8.48;;;;;;;24.27;53.91;101594.16;4945412;29;20169;-93
2023/06/08 09:54:17;;;;;;;9.75;7.15;;;;;;;24.49;52.18;101589.44;4962383;29;20034;-94
2023/06/08 09:56:52;;;;;;;11.30;6.30;;;;;;;24.68;53.23;101591.72;4969752;28;20476;-94
2023/06/08 09:59:20;;;;;;;11.73;8.03;;;;;;;24.52;52.26;101580.56;4992052;23;20031;-94
2023/06/08 10:02:35;;;;;;;12.53;7.30;;;;;;;24.60;53.86;101576.16;4997643;28;20293;-94
2023/06/08 10:13:46;;;;;;;15.60;8.60;;;;;;;25.50;49.60;101567.50;5065561;23;20054;-94
2023/06/08 10:16:11;;;;;;;10.45;7.00;;;;;;;25.63;48.12;101571.03;4996500;28;20487;-92
2023/06/08 10:19:05;;;;;;;9.83;7.57;;;;;;;25.90;48.23;101579.72;4992444;28;20045;-93
2023/06/08 10:22:09;;;;;;;13.13;7.22;;;;;;;26.11;48.47;101574.91;4931321;28;20081;-93
2023/06/08 11:29:23;;;;;;;9.77;7.35;;;;;;;25.83;45.78;101512.47;5365941;23;20081;-95
2023/06/08 11:56:50;;;;;;;12.55;6.60;;;;;;;26.48;42.82;101482.56;4992911;28;20106;-96
2023/06/08 12:06:26;;;;;;;11.32;7.03;;;;;;;26.72;42.73;101474.16;5008241;23;20078;-94
2023/06/08 12:09:36;;;;;;;8.00;6.03;;;;;;;26.71;43.07;101480.78;5371774;23;20050;-96
2023/06/08 12:47:11;;;;;;;;;;;;;;;;;;;;;
2023/06/08 12:49:37;;;;;;;8.63;6.70;;;;;;;27.85;38.92;101403.25;4956081;28;20040;-94
2023/06/08 13:23:30;;;;;;;14.02;6.63;;;;;;;29.45;37.38;101396.47;4979264;28;20541;-95
2023/06/08 13:58:39;;;;;;;7.97;6.10;;;;;;;30.19;36.62;101365.72;5726132;23;20528;-92
2023/06/08 14:01:45;;;;;;;8.73;7.03;;;;;;;30.24;35.95;101367.34;4977282;28;20377;-93
2023/06/08 14:04:13;;;;;;;9.13;6.25;;;;;;;30.27;36.02;101347.25;4975055;28;20479;-96
2023/06/08 14:11:54;;;;;;;10.07;7.03;;;;;;;30.37;35.71;101333.53;4995188;28;20415;-94
2023/06/08 14:18:08;;;;;;;8.35;6.30;;;;;;;30.17;36.26;101334.94;4868887;29;20048;-93
2023/06/08 14:20:37;;;;;;;10.27;6.05;;;;;;;30.39;36.88;101329.59;4887823;29;20141;-90
2023/06/08 14:23:36;;;;;;;10.03;6.77;;;;;;;30.41;36.06;101344.59;4880409;29;20045;-90
2023/06/08 14:26:02;;;;;;;10.80;6.67;;;;;;;30.18;35.26;101312.47;4895723;29;20300;-90
2023/06/08 14:28:30;;;;;;;8.05;6.03;;;;;;;30.20;35.37;101321.16;4893474;29;20469;-86
2023/06/08 14:33:56;;;;;;;11.05;6.68;;;;;;;30.32;35.88;101306.22;4827324;29;20491;-90
2023/06/08 14:39:25;;;;;;;10.80;6.30;;;;;;;30.55;35.37;101327.34;4186709;26;20046;-89
2023/06/08 14:41:50;;;;;;;8.53;6.03;;;;;;;30.35;34.68;101313.75;4989639;28;20274;-88
2023/06/08 14:44:39;;;;;;;8.52;6.32;;;;;;;30.54;35.23;101314.69;4997667;28;20032;-89
2023/06/08 14:49:40;;;;;;;10.43;6.53;;;;;;;30.46;34.69;101324.91;5182411;23;20320;-90
2023/06/08 14:52:07;;;;;;;10.13;6.88;;;;;;;30.59;34.34;101319.09;4989345;28;20031;-88
2023/06/08 14:54:32;;;;;;;9.37;6.80;;;;;;;30.57;35.12;101311.19;4992835;28;20125;-90
2023/06/08 14:56:57;;;;;;;7.85;5.53;;;;;;;30.82;34.73;101321.63;4991477;28;20177;-91
2023/06/08 14:59:23;;;;;;;9.17;5.90;;;;;;;31.00;34.43;101313.41;4965032;28;20034;-90
2023/06/08 15:01:48;;;;;;;9.40;6.63;;;;;;;31.01;34.57;101314.22;4966449;28;20027;-89
2023/06/08 15:04:14;;;;;;;11.32;6.38;;;;;;;31.44;33.85;101302.53;4975160;28;20031;-90
2023/06/08 15:09:29;;;;;;;12.75;6.72;;;;;;;32.18;32.90;101316.91;4994500;23;20065;-91
2023/06/08 15:12:23;;;;;;;11.95;6.68;;;;;;;32.03;32.12;101321.66;4974465;28;20066;-91
2023/06/08 15:15:51;;;;;;;;;;;;;;;;;;;;;
2023/06/08 15:22:18;;;;;;;8.52;5.70;;;;;;;31.33;34.69;101325.44;5012212;28;20056;-90
2023/06/08 15:34:33;;;;;;;12.35;6.20;;;;;;;31.06;34.42;101322.94;4927474;29;20052;-91
2023/06/08 15:37:01;;;;;;;6.97;6.03;;;;;;;30.42;35.52;101303.94;5087800;23;20070;-90
2023/06/08 15:47:08;;;;;;;12.93;6.37;;;;;;;31.01;34.38;101303.16;5190547;23;20043;-91
2023/06/08 15:49:45;;;;;;;9.10;6.70;;;;;;;31.33;33.73;101278.38;4979333;28;20305;-91
2023/06/08 15:52:32;;;;;;;10.35;6.50;;;;;;;31.70;33.67;101288.38;4991747;28;20033;-90
2023/06/08 16:16:33;;;;;;;7.90;6.10;;;;;;;31.88;33.18;101259.91;5432334;23;20025;-87
2023/06/08 16:18:58;;;;;;;8.93;6.37;;;;;;;32.09;32.87;101263.84;4991542;28;20364;-87
2023/06/08 16:21:25;;;;;;;7.97;5.40;;;;;;;32.31;33.03;101261.91;5001915;28;20094;-93
2023/06/08 16:27:40;;;;;;;7.43;5.85;;;;;;;31.85;33.16;101253.19;5520898;23;20406;-90
2023/06/08 16:33:39;;;;;;;;;;;;;;;;;;;;;
2023/06/08 16:36:27;;;;;;;10.00;6.32;;;;;;;31.41;33.62;101232.94;4885408;29;20047;-90
2023/06/08 16:38:53;;;;;;;8.48;6.15;;;;;;;31.27;33.06;101221.84;4967835;28;20057;-87
2023/06/08 16:41:40;;;;;;;8.07;6.87;;;;;;;31.34;34.12;101226.59;4976588;28;20034;-90
2023/06/08 17:39:51;;;;;;;7.85;5.88;;;;;;;29.55;36.77;101190.75;4971507;28;20445;-90
2023/06/08 17:58:19;;;;;;;7.23;5.30;;;;;;;27.61;38.87;101212.47;5306862;23;20066;-89
2023/06/08 18:00:44;;;;;;;6.40;5.60;;;;;;;27.45;39.14;101207.06;4953870;28;20287;-88
2023/06/08 18:03:10;;;;;;;7.20;5.60;;;;;;;27.33;39.86;101212.72;4970791;28;20054;-89
2023/06/08 18:21:32;;;;;;;9.88;5.95;;;;;;;26.62;41.03;101213.63;4935755;29;20550;-93
2023/06/08 18:24:32;;;;;;;7.60;5.85;;;;;;;26.66;40.75;101219.97;4936270;29;20050;-92
2023/06/08 18:27:03;;;;;;;8.63;6.10;;;;;;;26.43;42.16;101225.34;5017438;23;20058;-92
2023/06/08 18:29:31;;;;;;;9.90;6.07;;;;;;;26.14;43.21;101195.28;4993495;28;20341;-89
2023/06/08 18:32:31;;;;;;;10.13;5.70;;;;;;;26.27;42.54;101217.16;4977867;28;20469;-95
2023/06/08 18:39:19;;;;;;;;;;;;;;;;;;;;;
